createdAt,value
2023-06-24T00:00:23.230Z,62.49
2023-06-24T00:02:52.510Z,63.06
2023-06-24T00:05:19.425Z,63.14
2023-06-24T00:07:46.705Z,63.25
2023-06-24T00:10:16.074Z,63.47
2023-06-24T00:12:44.175Z,63.61
2023-06-24T00:15:11.606Z,63.59
2023-06-24T00:17:38.842Z,63.77
2023-06-24T00:20:08.501Z,63.44
2023-06-24T00:22:35.262Z,63.11
2023-06-24T00:25:02.017Z,63.15
2023-06-24T00:27:28.762Z,63.05
2023-06-24T00:29:55.417Z,62.96
2023-06-24T00:32:22.249Z,62.98
2023-06-24T00:34:48.965Z,63.02
2023-06-24T00:37:15.823Z,63.37
2023-06-24T00:39:42.520Z,63.34
2023-06-24T00:42:11.934Z,63.30
2023-06-24T00:44:38.879Z,62.73
2023-06-24T00:47:06.087Z,62.81
2023-06-24T00:49:32.834Z,62.89
2023-06-24T00:52:02.152Z,63.27
2023-06-24T00:54:32.433Z,63.55
2023-06-24T00:57:03.126Z,63.60
2023-06-24T00:59:31.311Z,63.15
2023-06-24T01:01:58.317Z,62.88
2023-06-24T01:04:26.362Z,63.00
2023-06-24T01:06:53.901Z,63.04
2023-06-24T01:09:21.489Z,63.41
2023-06-24T01:11:49.837Z,63.57
2023-06-24T01:14:21.328Z,63.38
2023-06-24T01:17:02.040Z,63.09
2023-06-24T01:19:55.073Z,63.44
2023-06-24T01:22:59.557Z,64.14
2023-06-24T01:26:10.807Z,63.88
2023-06-24T01:29:08.257Z,64.58
2023-06-24T01:31:59.950Z,64.38
2023-06-24T01:34:38.105Z,63.89
2023-06-24T01:37:14.368Z,64.33
2023-06-24T01:39:54.103Z,64.30
2023-06-24T01:42:23.013Z,64.33
2023-06-24T01:44:50.982Z,64.11
2023-06-24T01:47:21.614Z,64.08
2023-06-24T01:49:50.679Z,63.87
2023-06-24T01:52:19.608Z,64.56
2023-06-24T01:54:49.107Z,64.35
2023-06-24T01:57:19.312Z,63.35
2023-06-24T01:59:47.637Z,64.23
2023-06-24T02:02:15.291Z,64.05
2023-06-24T02:04:43.850Z,64.33
2023-06-24T02:07:12.762Z,63.97
2023-06-24T02:09:40.338Z,63.15
2023-06-24T02:12:09.402Z,63.96
2023-06-24T02:14:38.047Z,63.68
2023-06-24T02:17:07.306Z,64.08
2023-06-24T02:19:36.812Z,64.22
2023-06-24T02:22:05.876Z,63.81
2023-06-24T02:24:33.297Z,63.86
2023-06-24T02:27:00.390Z,64.12
2023-06-24T02:29:28.938Z,64.01
2023-06-24T02:31:55.803Z,64.00
2023-06-24T02:34:25.146Z,63.94
2023-06-24T02:36:52.130Z,63.77
2023-06-24T02:39:19.515Z,63.57
2023-06-24T02:41:51.328Z,63.85
2023-06-24T02:44:18.225Z,64.00
2023-06-24T02:46:47.259Z,63.85
2023-06-24T02:49:16.957Z,62.71
2023-06-24T02:51:44.190Z,63.30
2023-06-24T02:54:12.781Z,63.73
2023-06-24T02:56:43.084Z,63.57
2023-06-24T02:59:10.679Z,63.86
2023-06-24T03:01:40.171Z,63.36
2023-06-24T03:04:07.240Z,63.05
2023-06-24T03:06:38.072Z,62.76
2023-06-24T03:09:05.405Z,63.55
2023-06-24T03:11:32.150Z,62.47
2023-06-24T03:13:59.225Z,62.32
2023-06-24T03:16:26.003Z,62.21
2023-06-24T03:18:52.706Z,62.59
2023-06-24T03:21:19.454Z,62.31
2023-06-24T03:23:46.233Z,61.49
2023-06-24T03:26:12.942Z,62.84
2023-06-24T03:28:40.034Z,62.94
2023-06-24T03:31:06.818Z,62.16
2023-06-24T03:33:33.503Z,61.91
2023-06-24T03:36:00.250Z,62.50
2023-06-24T03:38:27.012Z,62.52
2023-06-24T03:40:53.750Z,62.52
2023-06-24T03:43:20.587Z,62.24
2023-06-24T03:45:47.365Z,62.49
2023-06-24T03:48:14.229Z,62.32
2023-06-24T03:50:40.914Z,62.64
2023-06-24T03:53:07.638Z,62.28
2023-06-24T03:55:34.590Z,62.70
2023-06-24T03:58:04.067Z,62.84
2023-06-24T04:00:30.760Z,62.73
2023-06-24T04:02:57.526Z,62.26
2023-06-24T04:05:25.854Z,62.12
2023-06-24T04:07:53.598Z,62.19
2023-06-24T04:10:20.497Z,62.29
2023-06-24T04:12:47.334Z,62.23
2023-06-24T04:15:14.058Z,61.99
2023-06-24T04:17:43.651Z,62.46
2023-06-24T04:20:11.273Z,62.35
2023-06-24T04:22:39.270Z,61.60
2023-06-24T04:25:09.032Z,62.18
2023-06-24T04:27:36.294Z,62.32
2023-06-24T04:30:04.493Z,62.66
2023-06-24T04:32:33.740Z,63.14
2023-06-24T04:35:02.183Z,61.92
2023-06-24T04:37:29.099Z,62.43
2023-06-24T04:39:56.029Z,62.25
2023-06-24T04:42:23.960Z,61.87
2023-06-24T04:44:53.518Z,61.62
2023-06-24T04:47:20.860Z,61.60
2023-06-24T04:49:47.756Z,61.48
2023-06-24T04:52:14.964Z,62.12
2023-06-24T04:54:41.650Z,62.00
2023-06-24T04:57:11.058Z,62.42
2023-06-24T04:59:39.516Z,62.43
2023-06-24T05:02:06.301Z,62.72
2023-06-24T05:04:33.044Z,63.11
2023-06-24T05:06:59.793Z,62.99
2023-06-24T05:09:26.581Z,64.24
2023-06-24T05:11:53.303Z,64.16
2023-06-24T05:14:19.952Z,64.27
2023-06-24T05:16:46.849Z,64.08
2023-06-24T05:19:13.550Z,62.97
2023-06-24T05:21:40.335Z,62.53
2023-06-24T05:24:07.319Z,63.42
2023-06-24T05:26:34.015Z,62.02
2023-06-24T05:29:00.659Z,62.95
2023-06-24T05:31:27.979Z,63.28
2023-06-24T05:33:54.624Z,62.54
2023-06-24T05:36:21.362Z,62.88
2023-06-24T05:38:49.843Z,62.49
2023-06-24T05:41:16.590Z,62.86
2023-06-24T05:43:44.941Z,63.12
2023-06-24T05:46:11.809Z,63.47
2023-06-24T05:48:38.622Z,63.63
2023-06-24T05:51:05.307Z,62.56
2023-06-24T05:53:32.056Z,63.01
2023-06-24T05:55:58.697Z,63.62
2023-06-24T05:58:25.367Z,62.81
2023-06-24T06:00:52.124Z,63.19
2023-06-24T06:03:18.819Z,64.24
2023-06-24T06:05:45.579Z,64.97
2023-06-24T06:08:12.430Z,65.80
2023-06-24T06:10:39.265Z,65.05
2023-06-24T06:13:06.052Z,65.20
2023-06-24T06:15:32.868Z,64.85
2023-06-24T06:17:59.769Z,65.09
2023-06-24T06:20:26.613Z,65.21
2023-06-24T06:22:53.373Z,64.77
2023-06-24T06:25:20.121Z,65.27
2023-06-24T06:27:46.885Z,65.29
2023-06-24T06:30:14.657Z,65.69
2023-06-24T06:32:41.579Z,66.36
2023-06-24T06:35:09.061Z,65.21
2023-06-24T06:37:35.866Z,64.91
2023-06-24T06:40:03.429Z,64.36
2023-06-24T06:42:31.160Z,64.82
2023-06-24T06:44:57.900Z,65.04
2023-06-24T06:47:24.847Z,65.09
2023-06-24T06:49:51.568Z,66.02
2023-06-24T06:52:20.749Z,65.64
2023-06-24T06:54:47.452Z,65.06
2023-06-24T06:57:14.189Z,65.08
2023-06-24T06:59:41.062Z,66.12
2023-06-24T07:02:08.028Z,66.17
2023-06-24T07:04:34.784Z,66.18
2023-06-24T07:07:01.543Z,65.98
2023-06-24T07:09:28.239Z,65.96
2023-06-24T07:11:55.099Z,65.96
2023-06-24T07:14:21.862Z,66.00
2023-06-24T07:16:48.624Z,65.73
2023-06-24T07:19:15.386Z,65.38
2023-06-24T07:21:42.072Z,64.54
2023-06-24T07:24:08.819Z,64.44
2023-06-24T07:26:35.590Z,64.63
2023-06-24T07:29:08.478Z,64.38
2023-06-24T07:31:37.947Z,63.85
2023-06-24T07:34:05.691Z,63.37
2023-06-24T07:36:32.797Z,64.02
2023-06-24T07:38:59.520Z,63.44
2023-06-24T07:41:26.414Z,63.16
2023-06-24T07:43:53.108Z,62.16
2023-06-24T07:46:19.809Z,60.49
2023-06-24T07:48:46.472Z,59.87
2023-06-24T07:51:13.190Z,59.64
2023-06-24T07:53:39.828Z,59.63
2023-06-24T07:56:06.510Z,59.19
2023-06-24T07:58:35.112Z,59.23
2023-06-24T08:01:01.860Z,58.46
2023-06-24T08:03:28.622Z,57.81
2023-06-24T08:05:55.869Z,57.00
2023-06-24T08:08:22.483Z,55.61
2023-06-24T08:10:49.211Z,54.24
2023-06-24T08:13:15.918Z,53.00
2023-06-24T08:15:43.017Z,53.20
2023-06-24T08:18:09.797Z,53.51
2023-06-24T08:20:36.472Z,53.13
2023-06-24T08:23:03.332Z,52.22
2023-06-24T08:25:49.012Z,52.20
2023-06-24T08:28:34.314Z,52.67
2023-06-24T08:31:01.109Z,52.26
2023-06-24T08:33:27.716Z,51.77
2023-06-24T08:35:54.371Z,50.43
2023-06-24T08:38:20.999Z,51.33
2023-06-24T08:40:48.307Z,50.53
2023-06-24T08:43:14.989Z,49.98
2023-06-24T08:45:41.602Z,49.34
2023-06-24T08:48:09.095Z,48.65
2023-06-24T08:50:45.049Z,49.73
2023-06-24T08:53:12.694Z,50.49
2023-06-24T08:55:45.046Z,50.71
2023-06-24T08:58:11.832Z,50.87
2023-06-24T09:00:38.550Z,50.67
2023-06-24T09:03:05.256Z,49.72
2023-06-24T09:05:31.979Z,49.65
2023-06-24T09:07:58.659Z,49.24
2023-06-24T09:10:36.055Z,47.06
2023-06-24T09:13:03.965Z,47.22
2023-06-24T09:15:37.792Z,46.94
2023-06-24T09:18:05.866Z,47.13
2023-06-24T09:20:33.720Z,44.21
2023-06-24T09:23:02.096Z,45.28
2023-06-24T09:25:29.210Z,44.63
2023-06-24T09:27:57.708Z,44.76
2023-06-24T09:30:24.744Z,44.47
2023-06-24T09:32:52.899Z,45.28
2023-06-24T09:35:22.333Z,45.13
2023-06-24T09:37:52.884Z,43.45
2023-06-24T09:40:20.551Z,42.37
2023-06-24T09:43:05.368Z,41.20
2023-06-24T09:45:32.015Z,41.40
2023-06-24T09:47:59.405Z,42.86
2023-06-24T09:50:26.182Z,44.07
2023-06-24T09:52:54.023Z,42.99
2023-06-24T09:55:20.704Z,43.24
2023-06-24T09:57:51.051Z,43.68
2023-06-24T10:00:20.052Z,42.73
2023-06-24T10:02:49.894Z,44.29
2023-06-24T10:05:16.914Z,44.09
2023-06-24T10:07:44.491Z,43.36
2023-06-24T10:10:11.518Z,41.52
2023-06-24T10:12:39.085Z,41.49
2023-06-24T10:15:07.203Z,40.23
2023-06-24T10:17:34.049Z,39.29
2023-06-24T10:20:05.444Z,40.28
2023-06-24T10:22:33.153Z,38.73
2023-06-24T10:25:06.641Z,38.24
2023-06-24T10:27:40.609Z,36.86
2023-06-24T10:30:09.025Z,37.62
2023-06-24T10:32:46.303Z,38.79
2023-06-24T10:35:33.426Z,37.69
2023-06-24T10:38:01.885Z,37.32
2023-06-24T10:40:38.697Z,37.95
2023-06-24T10:43:23.965Z,37.65
2023-06-24T10:45:54.847Z,37.49
2023-06-24T10:48:22.104Z,38.47
2023-06-24T10:50:52.206Z,37.00
2023-06-24T10:53:21.782Z,37.51
2023-06-24T10:55:48.595Z,37.87
2023-06-24T10:58:16.830Z,38.15
2023-06-24T11:00:48.208Z,38.58
2023-06-24T11:03:16.970Z,38.79
2023-06-24T11:05:45.967Z,38.66
2023-06-24T11:08:12.900Z,38.59
2023-06-24T11:10:49.391Z,38.97
2023-06-24T11:13:16.462Z,38.67
2023-06-24T11:15:43.753Z,37.70
2023-06-24T11:18:11.492Z,38.39
2023-06-24T11:20:39.731Z,37.05
2023-06-24T11:23:11.717Z,36.92
2023-06-24T11:25:43.110Z,37.09
2023-06-24T11:28:22.592Z,36.54
2023-06-24T11:30:50.070Z,36.79
2023-06-24T11:33:28.283Z,36.76
2023-06-24T11:35:54.887Z,37.66
2023-06-24T11:38:21.508Z,35.37
2023-06-24T11:40:50.089Z,35.71
2023-06-24T11:43:16.724Z,36.94
2023-06-24T11:45:43.475Z,36.13
2023-06-24T11:48:10.071Z,36.33
2023-06-24T11:50:37.705Z,36.62
2023-06-24T11:53:04.579Z,37.42
2023-06-24T11:55:32.532Z,36.50
2023-06-24T11:58:00.256Z,35.84
2023-06-24T12:00:40.944Z,35.47
2023-06-24T12:03:11.770Z,36.04
2023-06-24T12:05:46.198Z,36.42
2023-06-24T12:08:16.807Z,36.67
2023-06-24T12:10:45.120Z,36.08
2023-06-24T12:13:11.864Z,35.86
2023-06-24T12:15:38.593Z,34.34
2023-06-24T12:18:06.659Z,32.75
2023-06-24T12:20:37.212Z,34.25
2023-06-24T12:23:05.257Z,32.58
2023-06-24T12:25:31.956Z,33.86
2023-06-24T12:28:00.843Z,33.92
2023-06-24T12:30:27.799Z,33.40
2023-06-24T12:32:54.565Z,32.51
2023-06-24T12:35:21.369Z,33.29
2023-06-24T12:37:49.027Z,32.85
2023-06-24T12:40:15.754Z,32.59
2023-06-24T12:42:42.387Z,31.15
2023-06-24T12:45:09.482Z,32.21
2023-06-24T12:47:36.164Z,30.79
2023-06-24T12:50:09.371Z,28.54
2023-06-24T12:52:36.835Z,27.35
2023-06-24T12:55:05.058Z,29.41
2023-06-24T12:57:31.858Z,29.01
2023-06-24T12:59:58.558Z,28.09
2023-06-24T13:02:25.219Z,26.95
2023-06-24T13:04:51.964Z,27.89
2023-06-24T13:07:18.637Z,25.83
2023-06-24T13:09:45.251Z,26.52
2023-06-24T13:12:11.892Z,27.48
2023-06-24T13:14:38.590Z,27.21
2023-06-24T13:17:05.418Z,26.45
2023-06-24T13:19:33.650Z,25.88
2023-06-24T13:22:00.644Z,25.55
2023-06-24T13:24:27.345Z,26.59
2023-06-24T13:26:54.010Z,26.49
2023-06-24T13:29:21.797Z,25.13
2023-06-24T13:31:48.489Z,25.52
2023-06-24T13:34:15.636Z,25.10
2023-06-24T13:36:42.434Z,26.26
2023-06-24T13:39:13.603Z,26.26
2023-06-24T13:41:40.744Z,26.61
2023-06-24T13:44:07.581Z,26.00
2023-06-24T13:46:37.097Z,25.19
2023-06-24T13:49:06.134Z,27.28
2023-06-24T13:51:33.170Z,29.08
2023-06-24T13:53:59.914Z,27.65
2023-06-24T13:56:27.370Z,27.83
2023-06-24T13:58:55.262Z,28.16
2023-06-24T14:01:22.793Z,28.17
2023-06-24T14:03:50.458Z,26.83
2023-06-24T14:06:20.095Z,27.40
2023-06-24T14:08:47.067Z,27.04
2023-06-24T14:11:14.010Z,26.71
2023-06-24T14:13:41.204Z,26.86
2023-06-24T14:16:07.907Z,26.09
2023-06-24T14:18:35.803Z,26.80
2023-06-24T14:21:04.738Z,27.06
2023-06-24T14:23:32.229Z,26.93
2023-06-24T14:26:00.334Z,25.69
2023-06-24T14:28:27.397Z,26.48
2023-06-24T14:30:54.159Z,24.43
2023-06-24T14:33:20.823Z,25.64
2023-06-24T14:35:47.562Z,26.45
2023-06-24T14:38:14.305Z,27.27
2023-06-24T14:40:40.985Z,27.83
2023-06-24T14:43:07.590Z,27.06
2023-06-24T14:45:34.278Z,26.25
2023-06-24T14:48:01.009Z,25.91
2023-06-24T14:50:27.832Z,25.14
2023-06-24T14:52:54.500Z,26.61
2023-06-24T14:55:21.120Z,26.03
2023-06-24T14:57:47.789Z,26.00
2023-06-24T15:00:14.718Z,26.38
2023-06-24T15:02:41.427Z,26.13
2023-06-24T15:05:08.538Z,25.44
2023-06-24T15:07:36.066Z,26.76
2023-06-24T15:10:02.812Z,26.95
2023-06-24T15:12:29.409Z,25.89
2023-06-24T15:14:56.102Z,25.05
2023-06-24T15:17:25.063Z,26.17
2023-06-24T15:19:52.688Z,26.55
2023-06-24T15:22:19.392Z,27.03
2023-06-24T15:24:46.329Z,26.65
2023-06-24T15:27:13.148Z,26.59
2023-06-24T15:29:39.923Z,27.06
2023-06-24T15:32:07.130Z,27.42
2023-06-24T15:34:33.795Z,27.28
2023-06-24T15:37:00.482Z,27.69
2023-06-24T15:39:27.114Z,28.22
2023-06-24T15:41:53.849Z,28.21
2023-06-24T15:44:20.568Z,27.80
2023-06-24T15:46:48.494Z,28.84
2023-06-24T15:49:18.083Z,28.41
2023-06-24T15:51:45.013Z,28.41
2023-06-24T15:54:11.611Z,28.99
2023-06-24T15:56:38.301Z,27.84
2023-06-24T15:59:04.964Z,28.29
2023-06-24T16:01:31.985Z,28.08
2023-06-24T16:03:58.936Z,27.54
2023-06-24T16:06:25.661Z,27.96
2023-06-24T16:08:52.753Z,27.37
2023-06-24T16:11:19.658Z,27.65
2023-06-24T16:13:46.607Z,27.58
2023-06-24T16:16:13.282Z,27.83
2023-06-24T16:18:40.293Z,27.10
2023-06-24T16:21:07.171Z,27.08
2023-06-24T16:23:33.897Z,27.08
2023-06-24T16:26:01.809Z,27.35
2023-06-24T16:28:29.211Z,25.90
2023-06-24T16:30:56.020Z,26.65
2023-06-24T16:33:22.762Z,25.65
2023-06-24T16:35:49.527Z,26.37
2023-06-24T16:38:16.192Z,26.50
2023-06-24T16:40:42.943Z,26.24
2023-06-24T16:43:10.579Z,26.76
2023-06-24T16:45:37.275Z,26.68
2023-06-24T16:48:04.773Z,26.64
2023-06-24T16:50:31.645Z,26.06
2023-06-24T16:52:58.513Z,26.14
2023-06-24T16:55:25.326Z,26.91
2023-06-24T16:57:52.029Z,26.21
2023-06-24T17:00:18.884Z,25.83
2023-06-24T17:02:45.633Z,26.03
2023-06-24T17:05:12.713Z,26.04
2023-06-24T17:07:39.347Z,25.56
2023-06-24T17:10:06.451Z,25.68
2023-06-24T17:12:33.160Z,25.91
2023-06-24T17:14:59.791Z,25.42
2023-06-24T17:17:26.472Z,25.19
2023-06-24T17:19:53.128Z,24.82
2023-06-24T17:22:19.791Z,25.27
2023-06-24T17:24:46.382Z,26.30
2023-06-24T17:27:13.008Z,27.26
2023-06-24T17:29:39.602Z,28.30
2023-06-24T17:32:06.481Z,27.79
2023-06-24T17:34:33.169Z,28.19
2023-06-24T17:36:59.772Z,27.92
2023-06-24T17:39:27.833Z,28.09
2023-06-24T17:41:54.961Z,28.88
2023-06-24T17:44:21.590Z,28.65
2023-06-24T17:46:48.223Z,29.02
2023-06-24T17:49:14.823Z,29.29
2023-06-24T17:51:41.438Z,29.33
2023-06-24T17:54:08.094Z,29.26
2023-06-24T17:56:35.204Z,29.23
2023-06-24T17:59:02.093Z,29.27
2023-06-24T18:01:31.388Z,29.44
2023-06-24T18:03:58.092Z,29.34
2023-06-24T18:06:25.154Z,28.94
2023-06-24T18:08:51.850Z,29.13
2023-06-24T18:11:18.519Z,29.13
2023-06-24T18:13:45.302Z,29.48
2023-06-24T18:16:11.994Z,29.48
2023-06-24T18:18:38.626Z,30.15
2023-06-24T18:21:05.268Z,30.42
2023-06-24T18:23:32.424Z,29.77
2023-06-24T18:25:59.026Z,29.76
2023-06-24T18:28:25.687Z,30.00
2023-06-24T18:30:52.866Z,30.40
2023-06-24T18:33:19.549Z,30.50
2023-06-24T18:35:46.442Z,29.70
2023-06-24T18:38:13.191Z,30.25
2023-06-24T18:40:42.681Z,30.04
2023-06-24T18:43:10.508Z,30.18
2023-06-24T18:45:38.275Z,30.99
2023-06-24T18:48:05.094Z,31.37
2023-06-24T18:50:31.802Z,31.82
2023-06-24T18:52:58.403Z,31.80
2023-06-24T18:55:26.367Z,32.16
2023-06-24T18:57:53.047Z,32.47
2023-06-24T19:00:19.792Z,32.75
2023-06-24T19:02:46.441Z,32.90
2023-06-24T19:05:13.110Z,32.95
2023-06-24T19:07:39.721Z,32.48
2023-06-24T19:10:06.511Z,32.73
2023-06-24T19:12:33.177Z,32.41
2023-06-24T19:14:59.792Z,32.72
2023-06-24T19:17:26.415Z,32.86
2023-06-24T19:19:53.055Z,32.55
2023-06-24T19:22:19.660Z,32.89
2023-06-24T19:24:46.315Z,32.81
2023-06-24T19:27:12.923Z,33.01
2023-06-24T19:29:39.582Z,33.01
2023-06-24T19:32:07.099Z,32.92
2023-06-24T19:34:34.426Z,33.08
2023-06-24T19:37:02.171Z,33.34
2023-06-24T19:41:58.339Z,33.48
2023-06-24T19:44:25.008Z,33.62
2023-06-24T19:46:51.671Z,33.77
2023-06-24T19:49:18.393Z,33.57
2023-06-24T19:51:45.003Z,33.82
2023-06-24T19:54:11.646Z,33.74
2023-06-24T19:56:38.264Z,34.20
2023-06-24T19:59:04.996Z,34.19
2023-06-24T20:01:31.661Z,34.11
2023-06-24T20:03:58.314Z,34.41
2023-06-24T20:06:24.956Z,34.58
2023-06-24T20:08:51.632Z,35.00
2023-06-24T20:11:18.258Z,35.29
2023-06-24T20:13:46.126Z,35.24
2023-06-24T20:16:12.719Z,35.46
2023-06-24T20:18:39.311Z,35.78
2023-06-24T20:21:06.038Z,35.40
2023-06-24T20:23:32.703Z,35.60
2023-06-24T20:25:59.464Z,35.78
2023-06-24T20:28:26.284Z,35.25
2023-06-24T20:30:56.699Z,35.42
2023-06-24T20:33:24.884Z,35.70
2023-06-24T20:35:51.566Z,35.69
2023-06-24T20:38:18.200Z,35.98
2023-06-24T20:40:44.787Z,36.32
2023-06-24T20:43:11.391Z,36.82
2023-06-24T20:45:38.022Z,37.12
2023-06-24T20:48:04.791Z,37.30
2023-06-24T20:50:31.654Z,37.59
2023-06-24T20:52:58.268Z,37.78
2023-06-24T20:55:28.469Z,38.34
2023-06-24T20:57:55.026Z,38.76
2023-06-24T21:00:21.666Z,39.25
2023-06-24T21:02:48.346Z,39.86
2023-06-24T21:05:15.047Z,40.62
2023-06-24T21:07:41.639Z,41.12
2023-06-24T21:10:08.621Z,41.38
2023-06-24T21:12:43.412Z,41.83
2023-06-24T21:15:20.209Z,41.75
2023-06-24T21:17:47.011Z,42.05
2023-06-24T21:20:13.817Z,42.82
2023-06-24T21:22:40.452Z,42.50
2023-06-24T21:25:07.590Z,42.45
2023-06-24T21:27:34.315Z,42.62
2023-06-24T21:30:00.952Z,42.38
2023-06-24T21:32:27.656Z,42.97
2023-06-24T21:34:54.272Z,43.71
2023-06-24T21:37:20.854Z,43.59
2023-06-24T21:39:47.597Z,43.84
2023-06-24T21:42:14.208Z,44.60
2023-06-24T21:44:40.840Z,44.41
2023-06-24T21:47:08.292Z,44.49
2023-06-24T21:49:35.107Z,44.56
2023-06-24T21:52:01.690Z,44.06
2023-06-24T21:54:28.313Z,44.08
2023-06-24T21:56:55.365Z,43.69
2023-06-24T21:59:22.932Z,43.85
2023-06-24T22:01:49.760Z,44.44
2023-06-24T22:04:16.435Z,44.66
2023-06-24T22:06:43.898Z,44.83
2023-06-24T22:09:10.577Z,45.30
2023-06-24T22:11:37.223Z,45.15
2023-06-24T22:14:03.850Z,45.20
2023-06-24T22:16:30.452Z,45.70
2023-06-24T22:18:57.131Z,46.10
2023-06-24T22:21:24.311Z,46.03
2023-06-24T22:23:51.074Z,45.94
2023-06-24T22:26:17.706Z,46.49
2023-06-24T22:28:44.309Z,46.60
2023-06-24T22:31:11.090Z,46.88
2023-06-24T22:33:37.701Z,46.19
2023-06-24T22:36:04.606Z,46.30
2023-06-24T22:38:31.208Z,46.34
2023-06-24T22:40:57.903Z,46.68
2023-06-24T22:43:24.505Z,46.65
2023-06-24T22:45:51.129Z,46.89
2023-06-24T22:48:17.809Z,46.95
2023-06-24T22:50:44.500Z,47.21
2023-06-24T22:53:11.227Z,47.15
2023-06-24T22:55:37.879Z,47.36
2023-06-24T22:58:04.517Z,47.63
2023-06-24T23:00:31.168Z,47.97
2023-06-24T23:02:58.816Z,47.72
2023-06-24T23:05:25.902Z,47.99
2023-06-24T23:07:52.723Z,47.95
2023-06-24T23:10:19.918Z,47.38
2023-06-24T23:12:48.442Z,48.09
2023-06-24T23:15:15.704Z,48.76
2023-06-24T23:17:43.241Z,48.72
2023-06-24T23:20:10.631Z,48.60
2023-06-24T23:22:37.513Z,48.89
2023-06-24T23:25:04.514Z,49.38
2023-06-24T23:27:37.408Z,49.64
2023-06-24T23:30:08.071Z,49.88
2023-06-24T23:32:38.293Z,49.95
2023-06-24T23:35:14.256Z,49.74
2023-06-24T23:37:41.536Z,50.43
2023-06-24T23:40:08.953Z,49.93
2023-06-24T23:42:38.846Z,49.48
2023-06-24T23:45:07.368Z,50.31
2023-06-24T23:47:33.991Z,50.60
2023-06-24T23:50:00.725Z,50.85
2023-06-24T23:52:27.398Z,50.09
2023-06-24T23:54:54.051Z,50.67
2023-06-24T23:57:21.065Z,50.65
2023-06-24T23:59:47.670Z,50.72
